Time;durP1;ratioP1;P1;durP2;ratioP2;P2;SDS_P1;SDS_P2;PMS_P1;PMS_P2;Temp;Humidity;BMP_temperature;BMP_pressure;BME280_temperature;BME280_humidity;BME280_pressure;Samples;Min_cycle;Max_cycle;Signal;HPM_P1;HPM_P2
2022/05/15 00:01:36;;;;;;;8.18;4.38;;;;;;;12.84;70.33;101317.66;4965593;28;20017;-71
2022/05/15 00:04:02;;;;;;;7.18;4.22;;;;;;;12.71;70.87;101312.63;4960090;28;20018;-71
2022/05/15 00:06:27;;;;;;;6.07;4.38;;;;;;;12.68;71.21;101310.25;4957669;28;20260;-72
2022/05/15 00:08:53;;;;;;;6.57;4.43;;;;;;;12.64;71.19;101311.50;4967962;28;20471;-72
2022/05/15 00:11:18;;;;;;;5.18;4.10;;;;;;;12.56;71.52;101303.34;4954308;28;20009;-72
2022/05/15 00:13:44;;;;;;;6.57;4.22;;;;;;;12.61;71.27;101303.81;4978715;28;20042;-73
2022/05/15 00:16:09;;;;;;;6.93;4.10;;;;;;;12.51;71.45;101298.47;4972593;28;20078;-72
2022/05/15 00:18:35;;;;;;;9.48;4.25;;;;;;;12.42;71.98;101295.78;4985177;28;20899;-72
2022/05/15 00:21:00;;;;;;;6.13;3.95;;;;;;;12.43;71.86;101302.78;4999355;28;20066;-72
2022/05/15 00:23:26;;;;;;;6.35;4.30;;;;;;;12.65;70.88;101307.03;4990682;28;20581;-71
2022/05/15 00:25:51;;;;;;;6.60;4.50;;;;;;;12.56;71.33;101295.41;4964823;28;20017;-72
2022/05/15 00:28:17;;;;;;;7.22;4.28;;;;;;;12.41;72.10;101304.72;4979573;28;20002;-72
2022/05/15 00:30:42;;;;;;;5.97;4.18;;;;;;;12.38;72.28;101297.88;4979337;28;20060;-72
2022/05/15 00:33:08;;;;;;;5.50;4.45;;;;;;;12.50;71.72;101302.09;5009726;27;20051;-72
2022/05/15 00:35:35;;;;;;;5.20;4.70;;;;;;;12.38;72.36;101295.22;5010199;28;20365;-72
2022/05/15 00:38:04;;;;;;;7.38;4.60;;;;;;;12.52;71.98;101301.94;4953919;28;20237;-72
2022/05/15 00:40:29;;;;;;;5.80;4.22;;;;;;;12.50;72.05;101299.44;4976061;28;20018;-72
2022/05/15 00:42:55;;;;;;;5.80;4.50;;;;;;;12.51;71.34;101300.28;4997685;28;20592;-72
2022/05/15 00:45:20;;;;;;;5.57;4.18;;;;;;;12.52;71.25;101302.81;4976431;28;20326;-72
2022/05/15 00:47:46;;;;;;;5.97;4.03;;;;;;;12.23;72.27;101297.41;4958219;28;20118;-71
2022/05/15 00:50:14;;;;;;;5.47;4.50;;;;;;;12.14;72.96;101299.06;4956473;28;20030;-72
2022/05/15 00:52:41;;;;;;;7.28;4.45;;;;;;;12.07;73.13;101297.91;4953562;28;20057;-72
2022/05/15 00:55:13;;;;;;;6.65;4.75;;;;;;;12.08;73.11;101307.53;4955567;28;20839;-72
2022/05/15 00:57:47;;;;;;;5.28;4.78;;;;;;;12.27;72.47;101304.13;4920973;28;20960;-72
2022/05/15 01:00:17;;;;;;;8.00;4.32;;;;;;;12.08;72.87;101309.34;4941131;28;20118;-72
2022/05/15 01:02:57;;;;;;;6.63;5.05;;;;;;;12.01;73.25;101314.34;4979792;28;20040;-72
2022/05/15 01:05:23;;;;;;;6.07;4.95;;;;;;;12.05;73.60;101309.63;4966196;28;20053;-72
2022/05/15 01:07:48;;;;;;;8.32;4.78;;;;;;;12.06;73.23;101316.63;4961511;28;20344;-72
2022/05/15 01:10:14;;;;;;;8.15;4.93;;;;;;;12.12;72.53;101308.94;4948403;28;20005;-71
2022/05/15 01:12:40;;;;;;;6.88;4.55;;;;;;;11.97;73.23;101310.25;4944471;28;20109;-72
2022/05/15 01:15:08;;;;;;;6.40;4.85;;;;;;;11.93;73.08;101312.31;4974007;28;20016;-71
2022/05/15 01:17:33;;;;;;;7.25;4.60;;;;;;;11.93;73.25;101308.81;4949899;28;20049;-72
2022/05/15 01:20:07;;;;;;;7.75;5.13;;;;;;;11.82;73.57;101307.09;4989607;28;20160;-71
2022/05/15 01:22:32;;;;;;;;;;;;;;;11.71;73.83;101307.19;4959789;28;20037;-72
2022/05/15 01:24:58;;;;;;;7.77;4.97;;;;;;;11.65;74.04;101313.84;4999106;28;20050;-71
2022/05/15 01:27:23;;;;;;;8.23;4.90;;;;;;;11.50;74.06;101311.47;5002223;28;20018;-72
2022/05/15 01:29:49;;;;;;;9.23;4.60;;;;;;;11.47;74.18;101306.44;4987542;28;20022;-71
2022/05/15 01:32:15;;;;;;;7.88;4.70;;;;;;;11.52;74.00;101314.88;4976971;28;20018;-72
2022/05/15 01:34:40;;;;;;;10.15;4.72;;;;;;;11.74;73.09;101309.56;4968216;28;20540;-71
2022/05/15 01:37:06;;;;;;;7.88;4.47;;;;;;;11.74;72.69;101306.91;4944155;28;20918;-71
2022/05/15 01:39:31;;;;;;;8.88;5.35;;;;;;;11.40;73.41;101310.59;4952147;28;20435;-71
2022/05/15 01:41:57;;;;;;;7.30;4.93;;;;;;;11.31;73.87;101304.25;4938805;28;20040;-72
2022/05/15 01:44:22;;;;;;;9.43;5.00;;;;;;;11.57;73.08;101311.81;4959304;28;20037;-71
2022/05/15 01:46:48;;;;;;;10.82;4.97;;;;;;;11.51;73.09;101307.03;4965603;28;20018;-71
2022/05/15 01:49:14;;;;;;;5.47;4.90;;;;;;;11.51;72.99;101302.56;4973864;28;20283;-71
2022/05/15 01:51:40;;;;;;;7.13;4.60;;;;;;;11.26;73.76;101305.59;4954543;28;20898;-71
2022/05/15 01:54:05;;;;;;;5.75;4.85;;;;;;;11.29;73.93;101305.34;4978187;28;20099;-71
2022/05/15 01:56:30;;;;;;;7.38;5.10;;;;;;;11.31;73.68;101308.72;4952263;28;20108;-71
2022/05/15 01:58:57;;;;;;;8.13;4.95;;;;;;;11.23;74.04;101309.34;4979071;28;20014;-71
2022/05/15 02:01:22;;;;;;;6.25;4.60;;;;;;;11.14;74.20;101307.47;4986256;28;20024;-72
2022/05/15 02:03:48;;;;;;;10.50;5.13;;;;;;;11.09;74.42;101313.13;4980545;28;20033;-72
2022/05/15 02:06:13;;;;;;;7.30;4.60;;;;;;;11.07;74.47;101308.91;4995417;28;20001;-71
2022/05/15 02:08:39;;;;;;;7.40;4.70;;;;;;;11.02;74.71;101305.81;4988367;28;20946;-71
2022/05/15 02:11:04;;;;;;;5.88;4.45;;;;;;;10.92;74.71;101311.84;4973268;28;20029;-71
2022/05/15 02:13:30;;;;;;;5.72;4.95;;;;;;;10.89;74.82;101311.28;4944036;28;20013;-71
2022/05/15 02:15:55;;;;;;;8.75;5.10;;;;;;;10.89;75.01;101320.06;4977718;28;20021;-71
2022/05/15 02:18:20;;;;;;;5.85;4.95;;;;;;;10.82;74.89;101316.22;4985856;28;20364;-71
2022/05/15 02:20:46;;;;;;;6.40;5.05;;;;;;;10.71;75.68;101318.91;4979356;28;20232;-73
2022/05/15 02:23:11;;;;;;;8.07;5.55;;;;;;;10.71;75.92;101311.78;4960620;28;20086;-72
2022/05/15 02:25:38;;;;;;;7.78;5.35;;;;;;;10.59;76.10;101315.41;4977740;28;20887;-71
2022/05/15 02:28:03;;;;;;;7.32;5.40;;;;;;;10.60;76.19;101310.03;4980097;28;20025;-71
2022/05/15 02:30:29;;;;;;;7.38;5.45;;;;;;;10.58;75.87;101316.41;4975575;28;20013;-71
2022/05/15 02:32:54;;;;;;;6.20;5.07;;;;;;;10.59;75.85;101315.41;4995692;28;20374;-72
2022/05/15 02:35:20;;;;;;;7.68;5.32;;;;;;;10.50;76.17;101311.72;4959849;28;20074;-73
2022/05/15 02:37:47;;;;;;;9.45;5.72;;;;;;;10.56;75.77;101313.03;4958897;28;20109;-71
2022/05/15 02:40:12;;;;;;;11.63;5.63;;;;;;;10.56;75.88;101313.03;4973950;28;20030;-71
2022/05/15 02:42:38;;;;;;;11.32;5.72;;;;;;;10.39;76.13;101312.56;4961848;28;20439;-72
2022/05/15 02:45:04;;;;;;;6.30;5.70;;;;;;;10.46;76.02;101319.06;4953673;28;21042;-72
2022/05/15 02:47:30;;;;;;;7.95;5.60;;;;;;;10.44;75.90;101328.09;4983128;28;20030;-71
2022/05/15 02:52:39;;;;;;;7.30;5.50;;;;;;;10.35;76.28;101334.09;4961833;28;20196;-72
2022/05/15 02:55:05;;;;;;;8.38;5.78;;;;;;;10.40;75.94;101324.00;4957828;28;20025;-72
2022/05/15 02:57:30;;;;;;;8.43;5.75;;;;;;;10.53;75.76;101327.34;4960262;28;20013;-72
2022/05/15 02:59:55;;;;;;;6.57;5.20;;;;;;;10.47;75.39;101322.53;4994281;28;20026;-72
2022/05/15 03:02:21;;;;;;;6.30;5.47;;;;;;;10.37;75.90;101321.59;4976557;28;20066;-71
2022/05/15 03:04:47;;;;;;;6.07;4.78;;;;;;;10.61;74.71;101319.63;4964266;28;20001;-71
2022/05/15 03:07:12;;;;;;;7.85;5.40;;;;;;;10.59;75.32;101315.41;4976704;28;20063;-72
2022/05/15 03:09:38;;;;;;;6.00;5.43;;;;;;;10.46;75.72;101315.56;4990334;28;20914;-73
2022/05/15 03:12:03;;;;;;;6.53;5.82;;;;;;;10.19;76.35;101321.19;4979672;28;20020;-73
2022/05/15 03:14:30;;;;;;;7.13;5.50;;;;;;;10.21;76.34;101312.19;4977742;28;20381;-72
2022/05/15 03:16:55;;;;;;;8.38;5.47;;;;;;;10.24;76.86;101314.59;4992870;28;20029;-72
2022/05/15 03:19:21;;;;;;;5.90;5.28;;;;;;;10.40;75.61;101316.06;4996373;28;20224;-72
2022/05/15 03:21:46;;;;;;;7.00;5.45;;;;;;;10.52;74.74;101319.53;4993903;28;20207;-72
2022/05/15 03:24:12;;;;;;;7.20;5.60;;;;;;;10.47;74.92;101322.53;4979248;28;20086;-72
2022/05/15 03:26:39;;;;;;;5.85;5.30;;;;;;;10.41;75.37;101318.56;4964607;28;20040;-72
2022/05/15 03:29:05;;;;;;;7.35;5.57;;;;;;;10.38;75.39;101323.25;4982643;28;20040;-72
2022/05/15 03:31:30;;;;;;;6.40;5.55;;;;;;;10.26;75.52;101323.22;4999132;28;20018;-73
2022/05/15 03:33:55;;;;;;;6.70;5.70;;;;;;;10.17;76.46;101321.31;5000421;28;20013;-72
2022/05/15 03:36:21;;;;;;;6.25;5.45;;;;;;;10.24;75.91;101316.41;4999180;28;20263;-71
2022/05/15 03:38:46;;;;;;;7.55;5.55;;;;;;;10.23;75.99;101323.47;4974869;28;20006;-72
2022/05/15 03:41:12;;;;;;;8.07;5.38;;;;;;;10.26;75.63;101307.34;4981964;28;20121;-72
2022/05/15 03:43:37;;;;;;;7.78;5.97;;;;;;;10.25;76.01;101312.78;4981431;28;20045;-72
2022/05/15 03:46:03;;;;;;;8.65;5.60;;;;;;;10.23;75.78;101312.06;4981782;27;20031;-72
2022/05/15 03:48:29;;;;;;;6.50;5.40;;;;;;;10.32;75.77;101298.97;4991749;28;20024;-72
2022/05/15 03:50:54;;;;;;;6.07;5.45;;;;;;;10.18;75.88;101303.63;4971968;27;20539;-72
2022/05/15 03:53:19;;;;;;;6.93;5.68;;;;;;;10.07;76.65;101307.16;5019364;27;20723;-72
2022/05/15 03:55:45;;;;;;;6.65;5.93;;;;;;;9.97;76.71;101299.09;4964850;28;20014;-71
2022/05/15 03:58:10;;;;;;;9.52;6.10;;;;;;;9.86;77.91;101291.97;4985551;28;20048;-71
2022/05/15 04:00:36;;;;;;;7.03;6.28;;;;;;;9.92;77.46;101296.78;4966225;28;20017;-72
2022/05/15 04:03:01;;;;;;;8.70;6.60;;;;;;;9.90;77.22;101288.13;4983800;28;20037;-72
2022/05/15 04:05:27;;;;;;;9.45;6.20;;;;;;;9.89;77.99;101294.38;5000346;28;20261;-72
2022/05/15 04:07:53;;;;;;;6.60;6.00;;;;;;;9.88;77.97;101292.69;4966049;28;20032;-72
2022/05/15 04:10:20;;;;;;;9.43;6.30;;;;;;;9.82;77.80;101285.25;4960797;28;20013;-72
2022/05/15 04:12:45;;;;;;;8.18;6.10;;;;;;;9.80;78.35;101284.53;4966587;28;20041;-71
2022/05/15 04:15:11;;;;;;;8.52;6.28;;;;;;;9.86;77.84;101283.22;4995956;28;20014;-72
2022/05/15 04:17:43;;;;;;;7.13;6.10;;;;;;;9.95;77.99;101283.31;4975043;28;20088;-72
2022/05/15 04:20:09;;;;;;;8.50;6.03;;;;;;;9.90;78.31;101284.63;4964068;28;20252;-72
2022/05/15 04:22:35;;;;;;;10.55;6.30;;;;;;;9.97;77.92;101289.34;4961486;28;20029;-72
2022/05/15 04:25:00;;;;;;;6.38;5.78;;;;;;;10.01;77.37;101286.44;4946539;28;20020;-72
2022/05/15 04:27:26;;;;;;;6.25;5.65;;;;;;;9.97;77.42;101284.06;4962975;28;20025;-74
2022/05/15 04:29:54;;;;;;;6.70;6.03;;;;;;;10.04;77.66;101287.06;4961556;28;20018;-74
2022/05/15 04:32:19;;;;;;;8.55;6.18;;;;;;;10.04;77.77;101287.06;4960865;28;21015;-72
2022/05/15 04:34:45;;;;;;;7.38;6.13;;;;;;;10.06;78.10;101292.22;4945364;28;20014;-72
2022/05/15 04:37:10;;;;;;;7.38;6.43;;;;;;;10.10;78.03;101291.03;4980196;28;20032;-73
2022/05/15 04:39:36;;;;;;;8.05;6.05;;;;;;;10.21;77.56;101290.16;5015087;28;20030;-72
2022/05/15 04:42:01;;;;;;;7.10;6.05;;;;;;;10.32;77.05;101300.75;4965308;28;20116;-72
2022/05/15 04:44:27;;;;;;;7.80;5.80;;;;;;;10.29;77.23;101293.91;4980049;28;20042;-73
2022/05/15 04:46:52;;;;;;;9.27;5.90;;;;;;;10.34;77.50;101301.50;4959450;28;21037;-74
2022/05/15 04:49:17;;;;;;;7.55;5.85;;;;;;;10.38;77.76;101305.59;4980383;28;20603;-74
2022/05/15 04:51:43;;;;;;;9.13;5.80;;;;;;;10.47;77.08;101307.50;4975695;28;20014;-74
2022/05/15 04:54:08;;;;;;;8.15;6.13;;;;;;;10.50;77.46;101305.59;4994909;28;20796;-73
2022/05/15 04:56:33;;;;;;;7.60;5.68;;;;;;;10.52;77.35;101314.22;4983776;28;20010;-73
2022/05/15 04:58:59;;;;;;;9.98;6.03;;;;;;;10.60;77.05;101315.31;4962783;28;20226;-73
2022/05/15 05:01:25;;;;;;;9.60;5.72;;;;;;;10.63;76.50;101312.41;4976098;28;20010;-73
2022/05/15 05:03:55;;;;;;;6.57;5.57;;;;;;;10.73;76.46;101316.97;4962742;28;20118;-73
2022/05/15 05:06:20;;;;;;;7.88;5.85;;;;;;;10.79;76.49;101321.78;4967569;28;20010;-73
2022/05/15 05:08:46;;;;;;;6.40;5.78;;;;;;;10.94;75.72;101315.25;4961416;28;20357;-73
2022/05/15 05:11:11;;;;;;;7.30;5.78;;;;;;;10.95;76.43;101316.91;4984937;28;20344;-73
2022/05/15 05:13:36;;;;;;;6.88;5.80;;;;;;;11.00;76.55;101317.38;4975863;28;20028;-73
2022/05/15 05:16:02;;;;;;;7.65;5.82;;;;;;;11.05;76.45;101316.16;4994826;28;20021;-73
2022/05/15 05:18:27;;;;;;;6.13;5.50;;;;;;;11.18;75.96;101316.81;4986682;28;20788;-73
2022/05/15 05:20:52;;;;;;;6.38;5.88;;;;;;;11.28;76.49;101322.19;4963851;28;20013;-73
2022/05/15 05:23:18;;;;;;;6.03;5.40;;;;;;;11.41;76.55;101319.38;4963975;28;20337;-73
2022/05/15 05:25:43;;;;;;;8.05;5.93;;;;;;;11.61;76.17;101317.72;4967409;28;20049;-73
2022/05/15 05:28:09;;;;;;;8.68;5.63;;;;;;;11.59;76.24;101317.84;4950510;28;20056;-73
2022/05/15 05:30:34;;;;;;;9.70;5.63;;;;;;;11.73;76.19;101315.81;4993294;28;20022;-73
2022/05/15 05:33:00;;;;;;;7.13;5.45;;;;;;;11.75;76.07;101316.56;4993698;28;20106;-73
2022/05/15 05:35:25;;;;;;;5.88;5.38;;;;;;;11.93;75.95;101312.31;4960420;28;20076;-73
2022/05/15 05:37:51;;;;;;;7.43;5.90;;;;;;;12.08;75.60;101319.97;4976663;28;20388;-74
2022/05/15 05:40:17;;;;;;;5.97;5.47;;;;;;;12.13;75.62;101318.59;4979317;28;20034;-73
2022/05/15 05:42:42;;;;;;;5.97;5.18;;;;;;;12.24;75.21;101330.94;4994529;28;20053;-73
2022/05/15 05:45:08;;;;;;;6.55;5.47;;;;;;;12.31;75.47;101332.06;4993623;28;20139;-72
2022/05/15 05:47:33;;;;;;;9.05;5.32;;;;;;;12.50;75.25;101327.81;4940157;28;20018;-73
2022/05/15 05:49:59;;;;;;;5.13;4.60;;;;;;;12.58;75.18;101322.66;4972474;28;20034;-74
2022/05/15 05:52:24;;;;;;;5.18;4.65;;;;;;;12.76;75.33;101324.66;4958359;28;20010;-73
2022/05/15 05:54:50;;;;;;;5.40;4.90;;;;;;;12.85;74.97;101327.31;4961794;28;20091;-74
2022/05/15 05:57:16;;;;;;;6.80;5.20;;;;;;;12.99;74.35;101325.25;4942728;28;20022;-75
2022/05/15 05:59:41;;;;;;;9.65;7.38;;;;;;;13.14;74.17;101315.03;4958473;28;20045;-73
2022/05/15 06:02:07;;;;;;;6.13;5.15;;;;;;;13.27;73.96;101325.38;4943033;28;20022;-74
2022/05/15 06:04:42;;;;;;;7.05;4.95;;;;;;;13.39;73.72;101327.78;4938641;28;20141;-75
2022/05/15 06:07:10;;;;;;;6.28;5.10;;;;;;;13.56;73.08;101328.06;4966287;28;20018;-74
2022/05/15 06:09:39;;;;;;;6.05;4.53;;;;;;;13.79;72.85;101328.59;4960309;28;20091;-75
2022/05/15 06:12:05;;;;;;;8.30;4.50;;;;;;;14.01;72.37;101324.75;4962402;28;20045;-75
2022/05/15 06:14:30;;;;;;;6.40;4.35;;;;;;;14.27;71.61;101321.44;4983019;28;20777;-73
2022/05/15 06:16:56;;;;;;;4.93;4.18;;;;;;;14.40;70.44;101321.09;4963086;28;20023;-73
2022/05/15 06:19:22;;;;;;;6.35;3.97;;;;;;;14.60;68.05;101313.84;4955272;28;20797;-73
2022/05/15 06:21:47;;;;;;;5.28;4.10;;;;;;;14.77;68.03;101315.72;4942841;28;20323;-73
2022/05/15 06:24:13;;;;;;;7.28;4.25;;;;;;;14.90;65.88;101309.19;4959486;28;20140;-74
2022/05/15 06:26:38;;;;;;;9.15;3.83;;;;;;;15.06;65.97;101311.16;4948110;28;20018;-74
2022/05/15 06:29:03;;;;;;;6.20;4.00;;;;;;;15.19;65.90;101318.81;4972755;28;20244;-74
2022/05/15 06:31:29;;;;;;;5.90;3.88;;;;;;;15.31;64.94;101319.41;4962622;28;20990;-75
2022/05/15 06:33:54;;;;;;;5.90;4.03;;;;;;;15.51;64.17;101310.22;4950931;28;20489;-74
2022/05/15 06:36:20;;;;;;;7.20;3.85;;;;;;;15.72;63.04;101323.22;4937902;28;20099;-74
2022/05/15 06:38:45;;;;;;;5.80;3.60;;;;;;;15.86;63.03;101312.97;4943923;28;20007;-74
2022/05/15 06:41:11;;;;;;;6.07;3.50;;;;;;;15.99;62.73;101313.41;4968625;28;20094;-74
2022/05/15 06:43:36;;;;;;;5.22;3.65;;;;;;;16.12;63.00;101305.78;4992097;28;20109;-74
2022/05/15 06:46:02;;;;;;;7.57;3.17;;;;;;;16.19;62.87;101307.81;4992084;28;20013;-75
2022/05/15 06:48:28;;;;;;;4.47;3.20;;;;;;;16.32;62.68;101302.88;4977304;28;21002;-75
2022/05/15 06:50:53;;;;;;;7.85;3.38;;;;;;;16.44;61.79;101306.94;4973774;28;20098;-74
2022/05/15 06:53:18;;;;;;;8.30;3.80;;;;;;;16.58;61.32;101296.59;4973709;28;21002;-73
2022/05/15 06:58:28;;;;;;;;;;;;;;;16.76;61.08;101294.66;4977351;28;20017;-76
2022/05/15 07:00:53;;;;;;;8.82;3.50;;;;;;;16.93;60.88;101305.41;4979037;28;19904;-74
2022/05/15 07:03:19;;;;;;;7.03;3.20;;;;;;;17.03;59.77;101305.25;4951611;28;20057;-75
2022/05/15 07:05:44;;;;;;;10.52;3.35;;;;;;;17.09;58.79;101305.44;4989742;28;20022;-74
2022/05/15 07:08:11;;;;;;;5.10;3.10;;;;;;;17.20;58.31;101301.56;4967537;28;20060;-74
2022/05/15 07:10:37;;;;;;;4.63;2.92;;;;;;;17.32;58.36;101302.91;4947417;28;20199;-74
2022/05/15 07:13:02;;;;;;;5.03;3.17;;;;;;;17.41;59.90;101302.91;4976757;28;20102;-75
2022/05/15 07:15:29;;;;;;;8.40;2.80;;;;;;;17.49;57.87;101300.25;4981612;28;20006;-74
2022/05/15 07:17:54;;;;;;;8.25;3.00;;;;;;;17.63;56.24;101296.06;4991090;28;20026;-74
2022/05/15 07:20:20;;;;;;;5.93;2.78;;;;;;;17.76;57.68;101300.88;4970385;28;20052;-71
2022/05/15 07:22:45;;;;;;;4.60;2.88;;;;;;;17.91;56.56;101293.00;4977327;28;20250;-73
2022/05/15 07:25:10;;;;;;;6.30;3.22;;;;;;;18.07;56.73;101300.16;4992833;28;20002;-72
2022/05/15 07:27:36;;;;;;;6.75;2.67;;;;;;;18.28;56.30;101300.41;4992479;28;20009;-72
2022/05/15 07:30:02;;;;;;;5.05;2.63;;;;;;;18.49;55.33;101299.81;4957111;28;20020;-73
2022/05/15 07:32:27;;;;;;;7.43;2.90;;;;;;;18.71;55.51;101295.50;4977002;28;20013;-72
2022/05/15 07:34:53;;;;;;;7.47;2.67;;;;;;;18.83;55.23;101297.78;5013159;28;20598;-73
2022/05/15 07:37:18;;;;;;;6.00;2.80;;;;;;;18.82;54.46;101302.28;4959020;28;20144;-72
2022/05/15 07:39:44;;;;;;;6.65;3.17;;;;;;;19.02;54.29;101309.91;4983706;28;20033;-73
2022/05/15 07:42:09;;;;;;;12.38;3.17;;;;;;;19.15;54.79;101307.47;4979361;28;20037;-73
2022/05/15 07:44:35;;;;;;;8.40;2.78;;;;;;;19.15;52.98;101302.09;4988469;28;20132;-72
2022/05/15 07:47:00;;;;;;;5.90;2.60;;;;;;;19.14;52.82;101305.78;4987484;28;20460;-72
2022/05/15 07:49:25;;;;;;;6.47;2.85;;;;;;;19.30;53.81;101299.44;4975374;28;21139;-73
2022/05/15 07:51:51;;;;;;;7.75;3.30;;;;;;;19.34;53.23;101298.06;4973961;28;20045;-72
2022/05/15 07:54:17;;;;;;;6.60;3.13;;;;;;;19.43;52.40;101298.84;4957376;28;20029;-73
2022/05/15 07:56:42;;;;;;;5.05;2.83;;;;;;;19.52;51.73;101297.75;4945500;28;20101;-73
2022/05/15 07:59:08;;;;;;;4.60;2.75;;;;;;;19.62;51.87;101294.78;4957958;28;20060;-73
2022/05/15 08:01:34;;;;;;;7.20;2.80;;;;;;;19.70;51.18;101299.25;4986505;28;20600;-73
2022/05/15 08:03:59;;;;;;;4.57;3.00;;;;;;;19.76;51.07;101298.53;4945551;28;20327;-74
2022/05/15 08:09:09;;;;;;;6.88;2.65;;;;;;;19.85;47.03;101292.06;4980518;28;20418;-72
2022/05/15 08:11:36;;;;;;;6.88;2.78;;;;;;;19.86;48.37;101288.34;4966989;28;20218;-72
2022/05/15 08:14:02;;;;;;;7.82;4.28;;;;;;;20.00;48.80;101288.56;4983686;28;20025;-72
2022/05/15 08:16:27;;;;;;;8.38;4.28;;;;;;;20.07;47.53;101282.25;4979244;28;20006;-72
2022/05/15 08:24:21;;;;;;;5.27;3.07;;;;;;;20.44;49.05;101282.28;5001052;28;19927;-73
2022/05/15 08:26:47;;;;;;;10.43;4.43;;;;;;;20.54;47.75;101272.03;4962284;28;20936;-71
2022/05/15 08:29:12;;;;;;;9.02;3.38;;;;;;;20.82;48.32;101282.09;4979056;28;20974;-72
2022/05/15 08:31:39;;;;;;;7.05;2.85;;;;;;;20.90;47.33;101283.84;4955354;28;20050;-71
2022/05/15 08:34:04;;;;;;;4.78;3.00;;;;;;;20.90;47.73;101281.97;4991192;27;20086;-72
2022/05/15 08:36:30;;;;;;;6.53;2.80;;;;;;;20.98;46.94;101267.56;4966692;28;20017;-72
2022/05/15 08:38:55;;;;;;;5.47;2.85;;;;;;;21.15;46.59;101273.53;4993887;28;20014;-73
2022/05/15 08:41:30;;;;;;;6.00;2.72;;;;;;;21.13;44.18;101272.06;4982959;28;20612;-72
2022/05/15 08:44:08;;;;;;;5.40;2.67;;;;;;;21.14;44.72;101263.78;4993810;28;20036;-72
2022/05/15 08:46:49;;;;;;;4.68;2.85;;;;;;;21.43;45.91;101264.59;4970899;28;20515;-71
2022/05/15 08:49:24;;;;;;;5.22;2.80;;;;;;;21.61;45.57;101264.97;4994876;28;20025;-72
2022/05/15 08:52:17;;;;;;;7.22;2.63;;;;;;;21.73;43.68;101267.13;4959915;28;20022;-73
2022/05/15 08:55:01;;;;;;;5.22;2.63;;;;;;;21.90;42.17;101262.22;4950536;28;20326;-72
2022/05/15 08:57:34;;;;;;;3.42;2.38;;;;;;;22.02;44.24;101255.25;4959555;28;21011;-72
2022/05/15 09:00:00;;;;;;;6.95;2.58;;;;;;;21.98;42.76;101247.78;4945928;28;20595;-73
2022/05/15 09:02:25;;;;;;;6.80;2.40;;;;;;;22.02;40.08;101244.47;4958970;28;20029;-72
2022/05/15 09:04:51;;;;;;;5.32;2.65;;;;;;;22.20;41.98;101243.94;4953041;28;20511;-73
2022/05/15 09:07:52;;;;;;;5.35;2.70;;;;;;;22.26;41.03;101245.81;4953719;28;20125;-74
2022/05/15 09:10:33;;;;;;;4.53;2.40;;;;;;;22.28;41.82;101245.63;4977152;28;20010;-72
2022/05/15 09:13:11;;;;;;;7.03;2.90;;;;;;;22.41;41.15;101252.97;4947675;28;20190;-73
2022/05/15 09:15:41;;;;;;;3.53;2.20;;;;;;;22.56;40.91;101242.84;4960523;28;20018;-73
2022/05/15 09:18:15;;;;;;;6.32;2.15;;;;;;;22.75;39.84;101245.75;4960399;28;20017;-73
2022/05/15 09:20:47;;;;;;;5.03;2.70;;;;;;;23.02;41.69;101246.59;4962423;28;20167;-72
2022/05/15 09:23:39;;;;;;;6.65;2.65;;;;;;;23.05;39.63;101243.50;4980675;28;20105;-73
2022/05/15 09:26:07;;;;;;;4.65;2.70;;;;;;;23.24;39.37;101244.56;4967687;28;20255;-72
2022/05/15 09:28:42;;;;;;;8.18;2.70;;;;;;;23.25;40.00;101245.38;5000701;28;20014;-73
2022/05/15 09:31:17;;;;;;;4.03;2.20;;;;;;;23.49;40.25;101243.91;4960864;28;20514;-72
2022/05/15 09:33:50;;;;;;;2.97;2.20;;;;;;;23.32;38.99;101244.34;4968286;28;20438;-72
2022/05/15 09:36:35;;;;;;;6.13;2.38;;;;;;;23.70;38.59;101250.09;4944595;28;20113;-72
2022/05/15 09:39:26;;;;;;;3.80;2.40;;;;;;;23.97;37.77;101234.66;4978339;28;20725;-72
2022/05/15 09:45:17;;;;;;;3.20;2.60;;;;;;;24.83;39.07;101232.53;4998335;28;20044;-74
2022/05/15 09:47:44;;;;;;;9.93;3.03;;;;;;;25.09;36.96;101236.09;4953081;28;20539;-74
2022/05/15 09:50:47;;;;;;;9.05;2.30;;;;;;;25.11;36.80;101231.28;4987682;28;20954;-74
2022/05/15 09:53:23;;;;;;;8.38;2.60;;;;;;;25.13;36.23;101232.72;4975495;28;20301;-74
2022/05/15 09:55:58;;;;;;;7.38;2.33;;;;;;;25.43;37.86;101228.50;4978531;28;20944;-75
2022/05/15 09:58:24;;;;;;;3.65;2.15;;;;;;;25.71;36.45;101228.81;4975642;28;20797;-74
2022/05/15 10:00:49;;;;;;;7.93;3.50;;;;;;;26.12;36.54;101212.91;4966021;28;20022;-74
2022/05/15 10:03:21;;;;;;;4.32;2.13;;;;;;;26.41;33.45;101210.41;4934892;28;20026;-76
2022/05/15 10:05:56;;;;;;;4.55;2.30;;;;;;;26.21;35.73;101213.41;4929300;28;20160;-75
2022/05/15 10:08:23;;;;;;;4.85;2.20;;;;;;;26.90;36.23;101215.75;4957645;28;20039;-75
2022/05/15 10:10:51;;;;;;;3.35;2.10;;;;;;;26.83;35.50;101213.13;4955559;28;20022;-76
2022/05/15 10:13:32;;;;;;;5.63;2.30;;;;;;;27.17;34.44;101204.41;4968462;28;20018;-75
2022/05/15 10:16:02;;;;;;;2.83;2.20;;;;;;;27.44;33.32;101212.94;4964842;28;20026;-75
2022/05/15 10:18:29;;;;;;;3.78;2.10;;;;;;;28.05;35.27;101205.25;4931371;28;20003;-75
2022/05/15 10:20:54;;;;;;;4.60;1.90;;;;;;;28.25;33.34;101196.63;4944817;28;20013;-75
2022/05/15 10:23:27;;;;;;;7.70;2.40;;;;;;;28.90;31.13;101202.66;4953989;28;20042;-74
2022/05/15 10:26:05;;;;;;;2.58;1.92;;;;;;;28.69;29.82;101208.84;4956765;28;20132;-74
2022/05/15 10:28:33;;;;;;;4.75;2.08;;;;;;;28.52;31.18;101203.38;4956849;28;20095;-75
2022/05/15 10:31:37;;;;;;;2.92;2.03;;;;;;;28.61;32.00;101200.00;4972950;28;20006;-75
2022/05/15 10:34:04;;;;;;;3.70;2.30;;;;;;;28.49;32.03;101201.97;4962409;28;20431;-74
2022/05/15 10:36:35;;;;;;;4.55;2.00;;;;;;;28.73;31.73;101212.75;4961394;28;20873;-74
2022/05/15 10:39:12;;;;;;;4.80;2.35;;;;;;;28.93;29.78;101206.78;4980556;28;20020;-73
2022/05/15 10:42:15;;;;;;;5.72;2.20;;;;;;;28.81;30.84;101203.31;5019780;28;20060;-74
2022/05/15 10:45:04;;;;;;;6.53;2.30;;;;;;;29.61;30.98;101195.75;5013932;28;21028;-74
2022/05/15 10:48:07;;;;;;;9.65;2.35;;;;;;;30.08;29.53;101178.03;4965063;28;20010;-74
2022/05/15 10:51:06;;;;;;;4.28;2.00;;;;;;;29.57;27.68;101183.72;4992176;28;20014;-74
2022/05/15 10:59:59;;;;;;;2.50;1.95;;;;;;;30.35;28.83;101172.59;5006008;28;20287;-75
2022/05/15 11:02:50;;;;;;;2.85;1.92;;;;;;;30.23;28.67;101177.38;4981206;28;20012;-75
2022/05/15 11:05:28;;;;;;;5.10;1.80;;;;;;;30.33;27.80;101163.81;4998746;28;20136;-74
2022/05/15 11:08:17;;;;;;;3.97;2.15;;;;;;;31.05;26.69;101169.88;4969854;28;20395;-74
2022/05/15 11:10:48;;;;;;;3.65;1.90;;;;;;;30.65;25.65;101171.22;4995810;28;20114;-75
2022/05/15 11:13:49;;;;;;;3.58;1.80;;;;;;;30.58;26.62;101160.50;4989082;28;20275;-75
2022/05/15 11:16:20;;;;;;;4.47;1.73;;;;;;;30.23;27.98;101152.81;4990389;28;20153;-74
2022/05/15 11:19:18;;;;;;;2.33;1.80;;;;;;;30.49;26.70;101149.25;4982637;28;20018;-76
2022/05/15 11:21:46;;;;;;;1.85;1.60;;;;;;;30.89;26.72;101148.97;5011479;28;20114;-75
2022/05/15 11:24:22;;;;;;;3.00;1.80;;;;;;;31.07;24.87;101147.75;5017900;28;20050;-74
2022/05/15 11:26:51;;;;;;;4.93;1.98;;;;;;;31.00;27.39;101151.50;4985671;28;20133;-74
2022/05/15 11:29:18;;;;;;;3.25;1.83;;;;;;;30.71;26.48;101142.03;4984902;28;20813;-75
2022/05/15 11:31:54;;;;;;;3.70;1.58;;;;;;;31.26;24.97;101142.66;4983589;28;20021;-75
2022/05/15 11:34:19;;;;;;;1.95;1.50;;;;;;;31.64;24.34;101137.91;4970801;28;20275;-74
2022/05/15 11:36:46;;;;;;;2.72;1.40;;;;;;;31.67;23.64;101142.81;4983491;28;20033;-75
2022/05/15 11:39:15;;;;;;;3.88;1.92;;;;;;;32.16;24.47;101128.69;4962098;28;20013;-75
2022/05/15 11:41:43;;;;;;;2.60;1.20;;;;;;;32.08;22.75;101131.97;4982804;28;20380;-75
2022/05/15 11:44:35;;;;;;;3.95;1.58;;;;;;;31.99;23.65;101125.38;4985998;28;20612;-75
2022/05/15 11:47:01;;;;;;;2.65;1.50;;;;;;;32.26;24.18;101116.94;4997125;28;20065;-75
2022/05/15 11:49:34;;;;;;;3.00;1.73;;;;;;;31.80;25.37;101123.16;4959935;28;20118;-75
2022/05/15 11:52:08;;;;;;;1.30;1.27;;;;;;;31.12;21.35;101121.28;4976528;28;20022;-75
2022/05/15 11:54:38;;;;;;;1.63;1.40;;;;;;;30.48;23.72;101114.81;4976734;28;20127;-75
2022/05/15 11:57:08;;;;;;;12.95;1.90;;;;;;;30.79;25.40;101122.41;4965774;28;20018;-76